Portada
METAR-TAF:

METAR-TAF

Aeropuertos :

Riga, Letonia

Aeropuerto Internacional de Riga

latitud: 56-55N, longitud: 023-58E, altitud: 10 m

Observación

El informe se hizo hace 28 minutos, a las 22:50 UTC
Viento 4 kt del oeste, variando entre suroeste y norte-noroeste
Temperatura 8°C
Humedad 81%
Presión 1010 hPa
Visibilidad 10 km o más
lluvia ligera

METAR: EVRA 212250Z 27004KT 230V340 9999 -RA NSC 08/05 Q1010 NOSIG

Hora: 02:18 (23:18 UTC)

Pronóstico

El informe se hizo hace 3 horas y 18 minutos, a las 20:00 UTC
Pronóstico válido del 21 a las 21 UTC al 22 a las 21 UTC
Viento 7 kt del oeste
Visibilidad 10 km o más
Nubes dispersas a una altura de 2000 ft
Evolucionando progresivamente
del 22 a las 06 UTC al 22 a las 08 UTC
Viento 10 kt del noroeste

TAF: EVRA 212000Z 2121/2221 26007KT 9999 SCT020 BECMG 2206/2208 32010KT

Observaciones y pronósticos meteorológicos de más de 4000 aeropuertos (mensajes METAR y TAF).

Los puntos amarillos y rojos representan las estaciones disponibles.

Ponga el ratón en el punto deseado para ver el nombre de la estación.

Haga clic para ver las observaciones y los pronósticos meteorológicos.

Para cambiar el mapa : haga clic en los botones verdes con una cruz de color negro para hacer un zoom, en el botón verde con un guión para alejar o en las flechas verdes para mapas adyacentes.


METAR-TAF: